sensor_id;sensor_type;location;lat;lon;timestamp;P1;durP1;ratioP1;P2;durP2;ratioP2
44026;SDS011;29696;55.698;37.460;2023-05-02T00:00:50;5.50;;;3.77;;
44026;SDS011;29696;55.698;37.460;2023-05-02T00:03:17;5.40;;;3.90;;
44026;SDS011;29696;55.698;37.460;2023-05-02T00:05:43;4.23;;;3.37;;
44026;SDS011;29696;55.698;37.460;2023-05-02T00:08:10;7.93;;;3.07;;
44026;SDS011;29696;55.698;37.460;2023-05-02T00:10:37;6.03;;;3.13;;
44026;SDS011;29696;55.698;37.460;2023-05-02T00:13:03;6.07;;;3.10;;
44026;SDS011;29696;55.698;37.460;2023-05-02T00:15:30;7.37;;;3.00;;
44026;SDS011;29696;55.698;37.460;2023-05-02T00:17:57;8.53;;;3.20;;
44026;SDS011;29696;55.698;37.460;2023-05-02T00:20:23;4.40;;;3.53;;
44026;SDS011;29696;55.698;37.460;2023-05-02T00:22:50;3.17;;;2.67;;
44026;SDS011;29696;55.698;37.460;2023-05-02T00:25:16;6.90;;;2.90;;
44026;SDS011;29696;55.698;37.460;2023-05-02T00:27:43;4.10;;;2.63;;
44026;SDS011;29696;55.698;37.460;2023-05-02T00:30:12;4.00;;;2.73;;
44026;SDS011;29696;55.698;37.460;2023-05-02T00:32:40;3.03;;;2.43;;
44026;SDS011;29696;55.698;37.460;2023-05-02T00:35:06;5.47;;;3.87;;
44026;SDS011;29696;55.698;37.460;2023-05-02T00:37:33;5.83;;;3.33;;
44026;SDS011;29696;55.698;37.460;2023-05-02T00:40:01;9.60;;;5.37;;
44026;SDS011;29696;55.698;37.460;2023-05-02T00:42:32;5.90;;;2.70;;
44026;SDS011;29696;55.698;37.460;2023-05-02T00:45:04;4.33;;;3.30;;
44026;SDS011;29696;55.698;37.460;2023-05-02T00:47:31;4.67;;;4.03;;
44026;SDS011;29696;55.698;37.460;2023-05-02T00:49:58;5.23;;;4.10;;
44026;SDS011;29696;55.698;37.460;2023-05-02T00:52:27;5.30;;;4.23;;
44026;SDS011;29696;55.698;37.460;2023-05-02T00:54:54;5.50;;;3.40;;
44026;SDS011;29696;55.698;37.460;2023-05-02T00:57:21;8.50;;;4.20;;
44026;SDS011;29696;55.698;37.460;2023-05-02T00:59:48;5.93;;;3.97;;
44026;SDS011;29696;55.698;37.460;2023-05-02T01:02:29;5.87;;;4.10;;
44026;SDS011;29696;55.698;37.460;2023-05-02T01:08:12;7.43;;;6.73;;
44026;SDS011;29696;55.698;37.460;2023-05-02T01:11:02;7.73;;;5.93;;
44026;SDS011;29696;55.698;37.460;2023-05-02T01:13:37;10.10;;;6.60;;
44026;SDS011;29696;55.698;37.460;2023-05-02T01:16:05;5.73;;;5.23;;
44026;SDS011;29696;55.698;37.460;2023-05-02T01:18:35;10.37;;;6.50;;
44026;SDS011;29696;55.698;37.460;2023-05-02T01:21:06;7.03;;;5.07;;
44026;SDS011;29696;55.698;37.460;2023-05-02T01:29:53;4.80;;;3.70;;
44026;SDS011;29696;55.698;37.460;2023-05-02T01:32:24;4.63;;;3.60;;
44026;SDS011;29696;55.698;37.460;2023-05-02T01:34:52;7.73;;;4.67;;
44026;SDS011;29696;55.698;37.460;2023-05-02T01:37:21;7.33;;;4.73;;
44026;SDS011;29696;55.698;37.460;2023-05-02T01:39:49;8.47;;;3.90;;
44026;SDS011;29696;55.698;37.460;2023-05-02T01:42:17;5.40;;;4.90;;
44026;SDS011;29696;55.698;37.460;2023-05-02T01:44:46;6.30;;;5.63;;
44026;SDS011;29696;55.698;37.460;2023-05-02T01:47:14;4.97;;;4.33;;
44026;SDS011;29696;55.698;37.460;2023-05-02T01:49:41;6.03;;;5.03;;
44026;SDS011;29696;55.698;37.460;2023-05-02T01:52:10;6.00;;;5.40;;
44026;SDS011;29696;55.698;37.460;2023-05-02T01:54:37;10.90;;;5.00;;
44026;SDS011;29696;55.698;37.460;2023-05-02T01:57:06;4.50;;;4.10;;
44026;SDS011;29696;55.698;37.460;2023-05-02T01:59:35;5.47;;;4.80;;
44026;SDS011;29696;55.698;37.460;2023-05-02T02:02:05;6.43;;;4.73;;
44026;SDS011;29696;55.698;37.460;2023-05-02T02:04:34;4.80;;;3.90;;
44026;SDS011;29696;55.698;37.460;2023-05-02T02:07:05;5.70;;;4.23;;
44026;SDS011;29696;55.698;37.460;2023-05-02T02:09:33;5.90;;;3.93;;
44026;SDS011;29696;55.698;37.460;2023-05-02T02:12:06;5.40;;;4.40;;
44026;SDS011;29696;55.698;37.460;2023-05-02T02:14:38;4.47;;;3.80;;
44026;SDS011;29696;55.698;37.460;2023-05-02T02:17:11;5.40;;;4.10;;
44026;SDS011;29696;55.698;37.460;2023-05-02T02:19:40;4.30;;;3.10;;
44026;SDS011;29696;55.698;37.460;2023-05-02T02:22:07;5.17;;;3.50;;
44026;SDS011;29696;55.698;37.460;2023-05-02T02:24:36;3.67;;;3.17;;
44026;SDS011;29696;55.698;37.460;2023-05-02T02:27:05;5.40;;;4.47;;
44026;SDS011;29696;55.698;37.460;2023-05-02T02:29:33;6.23;;;4.67;;
44026;SDS011;29696;55.698;37.460;2023-05-02T02:31:59;5.40;;;4.10;;
44026;SDS011;29696;55.698;37.460;2023-05-02T02:34:26;4.13;;;3.23;;
44026;SDS011;29696;55.698;37.460;2023-05-02T02:36:56;7.57;;;3.90;;
44026;SDS011;29696;55.698;37.460;2023-05-02T02:42:54;3.50;;;3.07;;
44026;SDS011;29696;55.698;37.460;2023-05-02T02:51:44;4.63;;;4.13;;
44026;SDS011;29696;55.698;37.460;2023-05-02T02:57:10;3.87;;;3.47;;
44026;SDS011;29696;55.698;37.460;2023-05-02T03:00:16;3.50;;;2.80;;
44026;SDS011;29696;55.698;37.460;2023-05-02T03:02:44;3.53;;;2.20;;
44026;SDS011;29696;55.698;37.460;2023-05-02T03:05:13;4.20;;;3.00;;
44026;SDS011;29696;55.698;37.460;2023-05-02T03:07:41;5.53;;;3.43;;
44026;SDS011;29696;55.698;37.460;2023-05-02T03:10:07;4.47;;;3.10;;
44026;SDS011;29696;55.698;37.460;2023-05-02T03:12:35;7.40;;;2.87;;
44026;SDS011;29696;55.698;37.460;2023-05-02T03:18:37;3.30;;;2.53;;
44026;SDS011;29696;55.698;37.460;2023-05-02T03:21:05;19.60;;;4.10;;
44026;SDS011;29696;55.698;37.460;2023-05-02T03:23:31;4.13;;;2.87;;
44026;SDS011;29696;55.698;37.460;2023-05-02T03:25:58;3.50;;;3.20;;
44026;SDS011;29696;55.698;37.460;2023-05-02T03:28:25;3.20;;;2.63;;
44026;SDS011;29696;55.698;37.460;2023-05-02T03:30:52;6.78;;;2.33;;
44026;SDS011;29696;55.698;37.460;2023-05-02T03:33:20;3.67;;;2.80;;
44026;SDS011;29696;55.698;37.460;2023-05-02T03:35:47;2.90;;;2.47;;
44026;SDS011;29696;55.698;37.460;2023-05-02T03:38:13;5.70;;;2.42;;
44026;SDS011;29696;55.698;37.460;2023-05-02T03:40:41;7.97;;;3.85;;
44026;SDS011;29696;55.698;37.460;2023-05-02T03:43:10;3.55;;;2.72;;
44026;SDS011;29696;55.698;37.460;2023-05-02T03:45:37;5.60;;;4.35;;
44026;SDS011;29696;55.698;37.460;2023-05-02T03:48:03;9.75;;;4.05;;
44026;SDS011;29696;55.698;37.460;2023-05-02T03:50:30;3.67;;;3.08;;
44026;SDS011;29696;55.698;37.460;2023-05-02T03:52:57;5.68;;;3.80;;
44026;SDS011;29696;55.698;37.460;2023-05-02T03:55:37;6.93;;;3.90;;
44026;SDS011;29696;55.698;37.460;2023-05-02T03:58:11;8.52;;;3.65;;
44026;SDS011;29696;55.698;37.460;2023-05-02T04:00:37;7.75;;;3.95;;
44026;SDS011;29696;55.698;37.460;2023-05-02T04:03:06;10.73;;;4.05;;
44026;SDS011;29696;55.698;37.460;2023-05-02T04:05:34;6.18;;;4.00;;
44026;SDS011;29696;55.698;37.460;2023-05-02T04:08:01;5.28;;;4.35;;
44026;SDS011;29696;55.698;37.460;2023-05-02T04:10:29;6.97;;;4.38;;
44026;SDS011;29696;55.698;37.460;2023-05-02T04:12:58;4.65;;;3.70;;
44026;SDS011;29696;55.698;37.460;2023-05-02T04:15:28;6.15;;;3.70;;
44026;SDS011;29696;55.698;37.460;2023-05-02T04:17:59;4.95;;;4.45;;
44026;SDS011;29696;55.698;37.460;2023-05-02T04:20:25;7.00;;;4.68;;
44026;SDS011;29696;55.698;37.460;2023-05-02T04:22:54;8.02;;;4.45;;
44026;SDS011;29696;55.698;37.460;2023-05-02T04:25:20;7.70;;;4.60;;
44026;SDS011;29696;55.698;37.460;2023-05-02T04:27:48;8.48;;;4.70;;
44026;SDS011;29696;55.698;37.460;2023-05-02T04:30:17;6.55;;;5.10;;
44026;SDS011;29696;55.698;37.460;2023-05-02T04:32:52;7.57;;;5.30;;
44026;SDS011;29696;55.698;37.460;2023-05-02T04:35:20;13.10;;;5.22;;
44026;SDS011;29696;55.698;37.460;2023-05-02T04:37:46;6.38;;;5.05;;
44026;SDS011;29696;55.698;37.460;2023-05-02T04:40:14;9.40;;;4.97;;
44026;SDS011;29696;55.698;37.460;2023-05-02T04:42:43;5.18;;;4.07;;
44026;SDS011;29696;55.698;37.460;2023-05-02T04:45:14;7.03;;;4.82;;
44026;SDS011;29696;55.698;37.460;2023-05-02T04:47:43;6.80;;;4.68;;
44026;SDS011;29696;55.698;37.460;2023-05-02T04:50:09;7.90;;;4.63;;
44026;SDS011;29696;55.698;37.460;2023-05-02T04:52:36;9.32;;;5.18;;
44026;SDS011;29696;55.698;37.460;2023-05-02T04:55:03;13.18;;;5.78;;
44026;SDS011;29696;55.698;37.460;2023-05-02T04:57:32;8.63;;;4.10;;
44026;SDS011;29696;55.698;37.460;2023-05-02T04:59:59;11.90;;;4.80;;
44026;SDS011;29696;55.698;37.460;2023-05-02T05:02:33;5.85;;;4.45;;
44026;SDS011;29696;55.698;37.460;2023-05-02T05:05:00;11.50;;;4.25;;
44026;SDS011;29696;55.698;37.460;2023-05-02T05:07:30;6.45;;;4.38;;
44026;SDS011;29696;55.698;37.460;2023-05-02T05:09:57;10.07;;;5.28;;
44026;SDS011;29696;55.698;37.460;2023-05-02T05:12:29;9.32;;;5.38;;
44026;SDS011;29696;55.698;37.460;2023-05-02T05:14:56;9.40;;;4.95;;
44026;SDS011;29696;55.698;37.460;2023-05-02T05:17:25;9.88;;;5.70;;
44026;SDS011;29696;55.698;37.460;2023-05-02T05:19:52;8.60;;;5.03;;
44026;SDS011;29696;55.698;37.460;2023-05-02T05:22:19;6.63;;;3.50;;
44026;SDS011;29696;55.698;37.460;2023-05-02T05:24:52;9.25;;;4.15;;
44026;SDS011;29696;55.698;37.460;2023-05-02T05:27:20;8.35;;;4.55;;
44026;SDS011;29696;55.698;37.460;2023-05-02T05:29:47;7.13;;;4.03;;
44026;SDS011;29696;55.698;37.460;2023-05-02T05:32:14;5.78;;;4.32;;
44026;SDS011;29696;55.698;37.460;2023-05-02T05:34:42;6.78;;;3.08;;
44026;SDS011;29696;55.698;37.460;2023-05-02T05:37:09;6.05;;;4.05;;
44026;SDS011;29696;55.698;37.460;2023-05-02T05:39:35;4.88;;;3.53;;
44026;SDS011;29696;55.698;37.460;2023-05-02T05:42:04;4.05;;;2.40;;
44026;SDS011;29696;55.698;37.460;2023-05-02T05:44:31;3.42;;;2.90;;
44026;SDS011;29696;55.698;37.460;2023-05-02T05:46:59;6.03;;;3.60;;
44026;SDS011;29696;55.698;37.460;2023-05-02T05:49:26;8.32;;;2.75;;
44026;SDS011;29696;55.698;37.460;2023-05-02T05:51:53;9.13;;;2.67;;
44026;SDS011;29696;55.698;37.460;2023-05-02T05:54:20;4.60;;;2.53;;
44026;SDS011;29696;55.698;37.460;2023-05-02T05:56:46;6.25;;;2.40;;
44026;SDS011;29696;55.698;37.460;2023-05-02T05:59:16;3.80;;;2.83;;
44026;SDS011;29696;55.698;37.460;2023-05-02T06:01:43;6.63;;;2.60;;
44026;SDS011;29696;55.698;37.460;2023-05-02T06:04:10;2.45;;;2.00;;
44026;SDS011;29696;55.698;37.460;2023-05-02T06:06:40;4.22;;;1.90;;
44026;SDS011;29696;55.698;37.460;2023-05-02T06:09:07;5.88;;;2.30;;
44026;SDS011;29696;55.698;37.460;2023-05-02T06:11:35;1.85;;;1.38;;
44026;SDS011;29696;55.698;37.460;2023-05-02T06:14:03;5.45;;;1.73;;
44026;SDS011;29696;55.698;37.460;2023-05-02T06:16:30;1.52;;;0.95;;
44026;SDS011;29696;55.698;37.460;2023-05-02T06:18:56;1.38;;;1.00;;
44026;SDS011;29696;55.698;37.460;2023-05-02T06:21:23;7.85;;;1.52;;
44026;SDS011;29696;55.698;37.460;2023-05-02T06:23:49;6.05;;;1.85;;
44026;SDS011;29696;55.698;37.460;2023-05-02T06:26:15;6.38;;;1.85;;
44026;SDS011;29696;55.698;37.460;2023-05-02T06:28:42;11.65;;;3.08;;
44026;SDS011;29696;55.698;37.460;2023-05-02T06:31:09;6.45;;;2.95;;
44026;SDS011;29696;55.698;37.460;2023-05-02T06:33:35;9.68;;;3.38;;
44026;SDS011;29696;55.698;37.460;2023-05-02T06:36:02;7.20;;;1.90;;
44026;SDS011;29696;55.698;37.460;2023-05-02T06:38:28;5.50;;;1.98;;
44026;SDS011;29696;55.698;37.460;2023-05-02T06:40:55;4.50;;;1.85;;
44026;SDS011;29696;55.698;37.460;2023-05-02T06:43:21;3.78;;;1.00;;
44026;SDS011;29696;55.698;37.460;2023-05-02T06:45:51;2.17;;;1.30;;
44026;SDS011;29696;55.698;37.460;2023-05-02T06:48:18;3.30;;;1.10;;
44026;SDS011;29696;55.698;37.460;2023-05-02T06:50:44;2.65;;;1.38;;
44026;SDS011;29696;55.698;37.460;2023-05-02T06:53:11;1.23;;;0.93;;
44026;SDS011;29696;55.698;37.460;2023-05-02T06:55:37;1.20;;;1.08;;
44026;SDS011;29696;55.698;37.460;2023-05-02T06:58:03;1.83;;;1.10;;
44026;SDS011;29696;55.698;37.460;2023-05-02T07:00:30;9.77;;;1.33;;
44026;SDS011;29696;55.698;37.460;2023-05-02T07:02:56;1.40;;;0.93;;
44026;SDS011;29696;55.698;37.460;2023-05-02T07:05:23;0.93;;;0.93;;
44026;SDS011;29696;55.698;37.460;2023-05-02T07:07:49;0.93;;;0.82;;
44026;SDS011;29696;55.698;37.460;2023-05-02T07:10:15;3.50;;;1.27;;
44026;SDS011;29696;55.698;37.460;2023-05-02T07:12:42;1.45;;;1.13;;
44026;SDS011;29696;55.698;37.460;2023-05-02T07:15:08;0.95;;;0.77;;
44026;SDS011;29696;55.698;37.460;2023-05-02T07:17:35;1.20;;;1.10;;
44026;SDS011;29696;55.698;37.460;2023-05-02T07:20:01;4.47;;;1.25;;
44026;SDS011;29696;55.698;37.460;2023-05-02T07:22:29;1.05;;;1.00;;
44026;SDS011;29696;55.698;37.460;2023-05-02T07:24:56;0.80;;;0.80;;
44026;SDS011;29696;55.698;37.460;2023-05-02T07:27:23;1.33;;;0.80;;
44026;SDS011;29696;55.698;37.460;2023-05-02T07:29:50;0.82;;;0.82;;
44026;SDS011;29696;55.698;37.460;2023-05-02T07:32:16;2.97;;;0.90;;
44026;SDS011;29696;55.698;37.460;2023-05-02T07:34:43;1.25;;;0.90;;
44026;SDS011;29696;55.698;37.460;2023-05-02T07:37:10;0.80;;;0.80;;
44026;SDS011;29696;55.698;37.460;2023-05-02T07:39:37;0.90;;;0.85;;
44026;SDS011;29696;55.698;37.460;2023-05-02T07:42:03;0.93;;;0.93;;
44026;SDS011;29696;55.698;37.460;2023-05-02T07:44:30;2.50;;;1.00;;
44026;SDS011;29696;55.698;37.460;2023-05-02T07:46:58;1.27;;;1.20;;
44026;SDS011;29696;55.698;37.460;2023-05-02T07:49:24;1.50;;;0.90;;
44026;SDS011;29696;55.698;37.460;2023-05-02T07:51:51;2.10;;;0.85;;
44026;SDS011;29696;55.698;37.460;2023-05-02T07:54:17;1.23;;;1.13;;
44026;SDS011;29696;55.698;37.460;2023-05-02T07:56:45;1.90;;;0.88;;
44026;SDS011;29696;55.698;37.460;2023-05-02T07:59:15;2.08;;;1.45;;
44026;SDS011;29696;55.698;37.460;2023-05-02T08:01:41;5.95;;;1.25;;
44026;SDS011;29696;55.698;37.460;2023-05-02T08:04:08;1.63;;;1.10;;
44026;SDS011;29696;55.698;37.460;2023-05-02T08:06:37;0.95;;;0.73;;
44026;SDS011;29696;55.698;37.460;2023-05-02T08:09:04;1.83;;;0.85;;
44026;SDS011;29696;55.698;37.460;2023-05-02T08:11:30;2.08;;;1.23;;
44026;SDS011;29696;55.698;37.460;2023-05-02T08:13:57;2.05;;;0.95;;
44026;SDS011;29696;55.698;37.460;2023-05-02T08:16:23;2.20;;;1.23;;
44026;SDS011;29696;55.698;37.460;2023-05-02T08:18:49;2.63;;;1.40;;
44026;SDS011;29696;55.698;37.460;2023-05-02T08:21:16;5.80;;;1.73;;
44026;SDS011;29696;55.698;37.460;2023-05-02T08:23:42;2.40;;;1.80;;
44026;SDS011;29696;55.698;37.460;2023-05-02T08:26:10;1.10;;;0.95;;
44026;SDS011;29696;55.698;37.460;2023-05-02T08:28:36;0.60;;;0.60;;
44026;SDS011;29696;55.698;37.460;2023-05-02T08:31:02;3.42;;;0.98;;
44026;SDS011;29696;55.698;37.460;2023-05-02T08:33:29;0.82;;;0.82;;
44026;SDS011;29696;55.698;37.460;2023-05-02T08:35:55;3.75;;;0.90;;
44026;SDS011;29696;55.698;37.460;2023-05-02T08:38:22;1.58;;;0.68;;
44026;SDS011;29696;55.698;37.460;2023-05-02T08:40:48;1.05;;;0.85;;
44026;SDS011;29696;55.698;37.460;2023-05-02T08:43:15;1.58;;;0.90;;
44026;SDS011;29696;55.698;37.460;2023-05-02T08:45:43;2.40;;;0.82;;
44026;SDS011;29696;55.698;37.460;2023-05-02T08:48:11;1.52;;;0.90;;
44026;SDS011;29696;55.698;37.460;2023-05-02T08:50:40;2.88;;;0.82;;
44026;SDS011;29696;55.698;37.460;2023-05-02T08:53:10;0.65;;;0.65;;
44026;SDS011;29696;55.698;37.460;2023-05-02T08:55:39;0.60;;;0.60;;
44026;SDS011;29696;55.698;37.460;2023-05-02T08:58:07;0.75;;;0.65;;
44026;SDS011;29696;55.698;37.460;2023-05-02T09:00:37;1.52;;;1.08;;
44026;SDS011;29696;55.698;37.460;2023-05-02T09:03:10;1.95;;;1.40;;
44026;SDS011;29696;55.698;37.460;2023-05-02T09:05:57;1.30;;;1.00;;
44026;SDS011;29696;55.698;37.460;2023-05-02T09:08:47;1.50;;;0.80;;
44026;SDS011;29696;55.698;37.460;2023-05-02T09:11:15;1.70;;;0.95;;
44026;SDS011;29696;55.698;37.460;2023-05-02T09:13:45;5.03;;;0.93;;
44026;SDS011;29696;55.698;37.460;2023-05-02T09:16:22;0.70;;;0.70;;
44026;SDS011;29696;55.698;37.460;2023-05-02T09:18:54;2.20;;;1.17;;
44026;SDS011;29696;55.698;37.460;2023-05-02T09:21:26;1.50;;;1.17;;
44026;SDS011;29696;55.698;37.460;2023-05-02T09:24:19;3.87;;;1.17;;
44026;SDS011;29696;55.698;37.460;2023-05-02T09:26:55;1.67;;;1.20;;
44026;SDS011;29696;55.698;37.460;2023-05-02T09:29:25;3.90;;;1.50;;
44026;SDS011;29696;55.698;37.460;2023-05-02T09:31:53;3.10;;;1.07;;
44026;SDS011;29696;55.698;37.460;2023-05-02T09:34:19;1.73;;;1.10;;
44026;SDS011;29696;55.698;37.460;2023-05-02T09:36:46;2.07;;;1.20;;
44026;SDS011;29696;55.698;37.460;2023-05-02T09:39:20;4.33;;;1.00;;
44026;SDS011;29696;55.698;37.460;2023-05-02T09:41:48;1.13;;;1.03;;
44026;SDS011;29696;55.698;37.460;2023-05-02T09:44:18;2.07;;;1.30;;
44026;SDS011;29696;55.698;37.460;2023-05-02T09:46:55;1.17;;;0.90;;
44026;SDS011;29696;55.698;37.460;2023-05-02T09:49:40;1.23;;;1.07;;
44026;SDS011;29696;55.698;37.460;2023-05-02T09:52:10;3.23;;;1.23;;
44026;SDS011;29696;55.698;37.460;2023-05-02T09:54:41;1.73;;;1.60;;
44026;SDS011;29696;55.698;37.460;2023-05-02T09:57:07;1.87;;;1.33;;
44026;SDS011;29696;55.698;37.460;2023-05-02T09:59:35;2.37;;;1.00;;
44026;SDS011;29696;55.698;37.460;2023-05-02T10:02:02;3.30;;;1.00;;
44026;SDS011;29696;55.698;37.460;2023-05-02T10:04:31;1.37;;;1.17;;
44026;SDS011;29696;55.698;37.460;2023-05-02T10:06:58;1.30;;;1.07;;
44026;SDS011;29696;55.698;37.460;2023-05-02T10:09:26;1.00;;;0.90;;
44026;SDS011;29696;55.698;37.460;2023-05-02T10:11:57;1.90;;;0.90;;
44026;SDS011;29696;55.698;37.460;2023-05-02T10:14:29;1.37;;;1.10;;
44026;SDS011;29696;55.698;37.460;2023-05-02T10:19:53;3.33;;;1.10;;
44026;SDS011;29696;55.698;37.460;2023-05-02T10:22:35;3.03;;;1.43;;
44026;SDS011;29696;55.698;37.460;2023-05-02T10:25:02;1.90;;;0.93;;
44026;SDS011;29696;55.698;37.460;2023-05-02T10:27:32;1.10;;;1.00;;
44026;SDS011;29696;55.698;37.460;2023-05-02T10:29:59;3.83;;;1.37;;
44026;SDS011;29696;55.698;37.460;2023-05-02T10:32:32;1.53;;;1.03;;
44026;SDS011;29696;55.698;37.460;2023-05-02T10:35:02;1.47;;;0.87;;
44026;SDS011;29696;55.698;37.460;2023-05-02T10:37:33;2.90;;;1.20;;
44026;SDS011;29696;55.698;37.460;2023-05-02T10:40:01;1.47;;;1.00;;
44026;SDS011;29696;55.698;37.460;2023-05-02T10:42:30;3.10;;;1.07;;
44026;SDS011;29696;55.698;37.460;2023-05-02T10:45:02;2.93;;;1.10;;
44026;SDS011;29696;55.698;37.460;2023-05-02T10:47:30;2.80;;;1.07;;
44026;SDS011;29696;55.698;37.460;2023-05-02T10:50:01;1.30;;;1.00;;
44026;SDS011;29696;55.698;37.460;2023-05-02T10:52:35;2.08;;;0.80;;
44026;SDS011;29696;55.698;37.460;2023-05-02T11:00:46;4.57;;;1.50;;
44026;SDS011;29696;55.698;37.460;2023-05-02T11:03:12;1.50;;;1.40;;
44026;SDS011;29696;55.698;37.460;2023-05-02T11:06:12;1.80;;;1.47;;
44026;SDS011;29696;55.698;37.460;2023-05-02T11:08:32;3.30;;;1.45;;
44026;SDS011;29696;55.698;37.460;2023-05-02T11:11:28;2.37;;;1.40;;
44026;SDS011;29696;55.698;37.460;2023-05-02T11:14:04;1.10;;;1.00;;
44026;SDS011;29696;55.698;37.460;2023-05-02T11:22:43;2.80;;;1.20;;
44026;SDS011;29696;55.698;37.460;2023-05-02T11:25:30;2.27;;;1.40;;
44026;SDS011;29696;55.698;37.460;2023-05-02T11:28:01;1.10;;;1.00;;
44026;SDS011;29696;55.698;37.460;2023-05-02T11:30:39;2.77;;;1.20;;
44026;SDS011;29696;55.698;37.460;2023-05-02T11:35:55;6.53;;;1.20;;
44026;SDS011;29696;55.698;37.460;2023-05-02T11:38:23;6.97;;;4.93;;
44026;SDS011;29696;55.698;37.460;2023-05-02T11:40:52;1.50;;;1.20;;
44026;SDS011;29696;55.698;37.460;2023-05-02T11:43:20;1.70;;;1.33;;
44026;SDS011;29696;55.698;37.460;2023-05-02T11:45:49;3.80;;;1.40;;
44026;SDS011;29696;55.698;37.460;2023-05-02T11:48:17;2.33;;;1.07;;
44026;SDS011;29696;55.698;37.460;2023-05-02T11:50:49;1.93;;;1.20;;
44026;SDS011;29696;55.698;37.460;2023-05-02T11:53:18;5.43;;;2.10;;
44026;SDS011;29696;55.698;37.460;2023-05-02T11:55:49;4.90;;;1.43;;
44026;SDS011;29696;55.698;37.460;2023-05-02T11:58:36;6.63;;;1.90;;
44026;SDS011;29696;55.698;37.460;2023-05-02T12:01:12;4.83;;;2.20;;
44026;SDS011;29696;55.698;37.460;2023-05-02T12:03:40;9.67;;;2.00;;
44026;SDS011;29696;55.698;37.460;2023-05-02T12:06:10;4.27;;;1.93;;
44026;SDS011;29696;55.698;37.460;2023-05-02T12:08:38;2.90;;;1.90;;
44026;SDS011;29696;55.698;37.460;2023-05-02T12:11:05;5.53;;;2.53;;
44026;SDS011;29696;55.698;37.460;2023-05-02T12:13:32;5.20;;;2.27;;
44026;SDS011;29696;55.698;37.460;2023-05-02T12:15:58;6.43;;;1.90;;
44026;SDS011;29696;55.698;37.460;2023-05-02T12:18:25;3.97;;;1.80;;
44026;SDS011;29696;55.698;37.460;2023-05-02T12:20:53;7.93;;;2.00;;
44026;SDS011;29696;55.698;37.460;2023-05-02T12:23:22;12.00;;;2.20;;
44026;SDS011;29696;55.698;37.460;2023-05-02T12:25:51;3.13;;;1.70;;
44026;SDS011;29696;55.698;37.460;2023-05-02T12:28:18;2.07;;;1.10;;
44026;SDS011;29696;55.698;37.460;2023-05-02T12:30:46;2.53;;;1.87;;
44026;SDS011;29696;55.698;37.460;2023-05-02T12:33:14;2.13;;;1.50;;
44026;SDS011;29696;55.698;37.460;2023-05-02T12:35:42;2.90;;;1.57;;
44026;SDS011;29696;55.698;37.460;2023-05-02T12:38:11;6.47;;;1.63;;
44026;SDS011;29696;55.698;37.460;2023-05-02T12:40:58;1.70;;;1.20;;
44026;SDS011;29696;55.698;37.460;2023-05-02T12:43:25;2.87;;;1.77;;
44026;SDS011;29696;55.698;37.460;2023-05-02T12:46:08;4.20;;;1.60;;
44026;SDS011;29696;55.698;37.460;2023-05-02T12:48:35;9.20;;;2.23;;
44026;SDS011;29696;55.698;37.460;2023-05-02T12:51:01;7.77;;;2.53;;
44026;SDS011;29696;55.698;37.460;2023-05-02T12:53:37;10.37;;;2.30;;
44026;SDS011;29696;55.698;37.460;2023-05-02T12:56:09;14.43;;;2.97;;
44026;SDS011;29696;55.698;37.460;2023-05-02T12:58:43;4.77;;;2.43;;
44026;SDS011;29696;55.698;37.460;2023-05-02T13:01:13;4.67;;;2.00;;
44026;SDS011;29696;55.698;37.460;2023-05-02T13:03:41;2.60;;;1.63;;
44026;SDS011;29696;55.698;37.460;2023-05-02T13:06:08;2.07;;;1.37;;
44026;SDS011;29696;55.698;37.460;2023-05-02T13:08:35;5.07;;;1.37;;
44026;SDS011;29696;55.698;37.460;2023-05-02T13:11:02;2.60;;;1.40;;
44026;SDS011;29696;55.698;37.460;2023-05-02T13:13:29;5.37;;;1.67;;
44026;SDS011;29696;55.698;37.460;2023-05-02T13:15:57;4.20;;;1.63;;
44026;SDS011;29696;55.698;37.460;2023-05-02T13:18:24;4.37;;;2.50;;
44026;SDS011;29696;55.698;37.460;2023-05-02T13:20:50;3.60;;;1.60;;
44026;SDS011;29696;55.698;37.460;2023-05-02T13:23:17;2.30;;;1.60;;
44026;SDS011;29696;55.698;37.460;2023-05-02T13:25:43;2.90;;;1.73;;
44026;SDS011;29696;55.698;37.460;2023-05-02T13:28:09;3.90;;;1.47;;
44026;SDS011;29696;55.698;37.460;2023-05-02T13:30:36;1.97;;;1.77;;
44026;SDS011;29696;55.698;37.460;2023-05-02T13:33:02;3.27;;;1.50;;
44026;SDS011;29696;55.698;37.460;2023-05-02T13:35:29;1.70;;;1.37;;
44026;SDS011;29696;55.698;37.460;2023-05-02T13:37:55;5.13;;;1.73;;
44026;SDS011;29696;55.698;37.460;2023-05-02T13:40:22;2.20;;;1.07;;
44026;SDS011;29696;55.698;37.460;2023-05-02T13:42:48;2.93;;;1.30;;
44026;SDS011;29696;55.698;37.460;2023-05-02T13:45:14;4.43;;;1.90;;
44026;SDS011;29696;55.698;37.460;2023-05-02T13:47:42;2.40;;;1.50;;
44026;SDS011;29696;55.698;37.460;2023-05-02T13:50:08;2.17;;;1.47;;
44026;SDS011;29696;55.698;37.460;2023-05-02T13:52:35;6.67;;;1.70;;
44026;SDS011;29696;55.698;37.460;2023-05-02T13:55:02;2.10;;;1.67;;
44026;SDS011;29696;55.698;37.460;2023-05-02T13:57:30;2.10;;;1.30;;
44026;SDS011;29696;55.698;37.460;2023-05-02T13:59:56;3.37;;;1.67;;
44026;SDS011;29696;55.698;37.460;2023-05-02T14:02:22;6.53;;;2.03;;
44026;SDS011;29696;55.698;37.460;2023-05-02T14:04:49;2.00;;;1.30;;
44026;SDS011;29696;55.698;37.460;2023-05-02T14:07:15;2.17;;;1.50;;
44026;SDS011;29696;55.698;37.460;2023-05-02T14:09:42;1.90;;;1.40;;
44026;SDS011;29696;55.698;37.460;2023-05-02T14:12:09;3.17;;;1.37;;
44026;SDS011;29696;55.698;37.460;2023-05-02T14:14:35;4.07;;;1.50;;
44026;SDS011;29696;55.698;37.460;2023-05-02T14:17:03;5.93;;;2.17;;
44026;SDS011;29696;55.698;37.460;2023-05-02T14:19:30;8.00;;;1.57;;
44026;SDS011;29696;55.698;37.460;2023-05-02T14:21:57;2.13;;;1.03;;
44026;SDS011;29696;55.698;37.460;2023-05-02T14:24:24;3.50;;;1.50;;
44026;SDS011;29696;55.698;37.460;2023-05-02T14:26:50;2.90;;;1.50;;
44026;SDS011;29696;55.698;37.460;2023-05-02T14:29:16;2.27;;;1.47;;
44026;SDS011;29696;55.698;37.460;2023-05-02T14:31:44;3.13;;;1.00;;
44026;SDS011;29696;55.698;37.460;2023-05-02T14:34:10;2.07;;;1.13;;
44026;SDS011;29696;55.698;37.460;2023-05-02T14:36:38;2.07;;;1.30;;
44026;SDS011;29696;55.698;37.460;2023-05-02T14:39:04;5.37;;;2.17;;
44026;SDS011;29696;55.698;37.460;2023-05-02T14:41:31;1.50;;;1.03;;
44026;SDS011;29696;55.698;37.460;2023-05-02T14:43:57;3.83;;;1.30;;
44026;SDS011;29696;55.698;37.460;2023-05-02T14:46:24;2.63;;;1.23;;
44026;SDS011;29696;55.698;37.460;2023-05-02T14:48:50;2.50;;;1.20;;
44026;SDS011;29696;55.698;37.460;2023-05-02T14:51:16;1.97;;;1.37;;
44026;SDS011;29696;55.698;37.460;2023-05-02T14:53:43;2.73;;;1.00;;
44026;SDS011;29696;55.698;37.460;2023-05-02T14:56:12;3.70;;;1.17;;
44026;SDS011;29696;55.698;37.460;2023-05-02T14:58:40;2.03;;;1.33;;
44026;SDS011;29696;55.698;37.460;2023-05-02T15:01:13;3.60;;;1.60;;
44026;SDS011;29696;55.698;37.460;2023-05-02T15:03:41;4.07;;;2.00;;
44026;SDS011;29696;55.698;37.460;2023-05-02T15:06:07;3.77;;;1.50;;
44026;SDS011;29696;55.698;37.460;2023-05-02T15:08:34;4.97;;;1.57;;
44026;SDS011;29696;55.698;37.460;2023-05-02T15:11:01;3.17;;;1.50;;
44026;SDS011;29696;55.698;37.460;2023-05-02T15:13:27;5.10;;;1.30;;
44026;SDS011;29696;55.698;37.460;2023-05-02T15:15:53;5.43;;;1.50;;
44026;SDS011;29696;55.698;37.460;2023-05-02T15:18:20;6.93;;;1.20;;
44026;SDS011;29696;55.698;37.460;2023-05-02T15:20:47;3.60;;;1.17;;
44026;SDS011;29696;55.698;37.460;2023-05-02T15:23:13;2.03;;;1.30;;
44026;SDS011;29696;55.698;37.460;2023-05-02T15:25:39;6.43;;;1.30;;